Time;durP1;ratioP1;P1;durP2;ratioP2;P2;SDS_P1;SDS_P2;PMS_P1;PMS_P2;Temp;Humidity;BMP_temperature;BMP_pressure;BME280_temperature;BME280_humidity;BME280_pressure;Samples;Min_cycle;Max_cycle;Signal;HPM_P1;HPM_P2
2022/09/25 00:01:10;;;;;;;4.22;2.40;;;18.40;99.90;;;;;;5043474;28;20206;-78
2022/09/25 00:03:43;;;;;;;3.42;1.80;;;18.50;99.90;;;;;;5027015;28;20761;-77
2022/09/25 00:06:16;;;;;;;2.65;1.83;;;18.70;99.90;;;;;;5011393;28;20587;-78
2022/09/25 00:08:47;;;;;;;2.38;1.67;;;18.50;99.90;;;;;;5026917;28;20203;-78
2022/09/25 00:11:23;;;;;;;3.75;1.90;;;18.70;99.90;;;;;;5031093;28;20220;-78
2022/09/25 00:13:55;;;;;;;2.03;1.50;;;18.70;99.90;;;;;;5030075;28;20203;-78
2022/09/25 00:16:29;;;;;;;2.38;1.63;;;18.90;99.90;;;;;;5030158;28;20288;-78
2022/09/25 00:21:51;;;;;;;2.88;1.35;;;19.10;99.90;;;;;;5011202;28;20287;-78
2022/09/25 00:24:23;;;;;;;2.10;1.52;;;19.20;99.90;;;;;;5010802;28;20204;-78
2022/09/25 00:26:53;;;;;;;1.67;1.38;;;19.30;99.90;;;;;;5024074;28;20196;-79
2022/09/25 00:29:24;;;;;;;2.25;1.33;;;19.40;99.90;;;;;;5030524;28;20681;-78
2022/09/25 00:31:57;;;;;;;1.30;1.20;;;19.40;99.90;;;;;;5010334;28;20558;-78
2022/09/25 00:34:28;;;;;;;1.48;1.10;;;19.40;99.90;;;;;;5020562;28;20205;-78
2022/09/25 00:36:59;;;;;;;1.15;1.05;;;19.40;99.90;;;;;;5026915;28;20217;-78
2022/09/25 00:39:30;;;;;;;1.95;1.10;;;19.60;99.90;;;;;;5011419;28;20562;-79
2022/09/25 00:42:00;;;;;;;1.63;1.10;;;19.70;99.90;;;;;;5010232;28;20198;-79
2022/09/25 00:44:55;;;;;;;1.45;0.98;;;19.70;99.90;;;;;;5010405;28;20221;-78
2022/09/25 00:47:38;;;;;;;1.40;1.00;;;19.80;99.90;;;;;;5011012;28;20214;-79
2022/09/25 00:50:20;;;;;;;1.77;1.00;;;19.80;99.90;;;;;;5010288;28;20217;-78
2022/09/25 00:52:52;;;;;;;2.60;1.05;;;19.80;99.90;;;;;;5016601;28;20240;-78
2022/09/25 00:55:24;;;;;;;1.52;1.00;;;19.90;99.90;;;;;;5030850;28;20205;-78
2022/09/25 00:57:57;;;;;;;1.55;1.30;;;20.10;99.90;;;;;;5029673;28;20300;-78
2022/09/25 01:00:28;;;;;;;1.50;1.13;;;20.10;99.90;;;;;;5029899;28;20204;-78
2022/09/25 01:03:01;;;;;;;1.38;1.05;;;20.10;99.90;;;;;;5029801;28;20201;-79
2022/09/25 01:05:35;;;;;;;1.67;1.20;;;20.30;99.90;;;;;;5029950;28;20598;-78
2022/09/25 01:08:08;;;;;;;2.70;1.10;;;20.50;99.90;;;;;;5039904;28;20211;-78
2022/09/25 01:10:40;;;;;;;1.23;1.10;;;20.60;99.90;;;;;;5051160;28;20634;-79
2022/09/25 01:13:11;;;;;;;1.70;1.00;;;20.80;99.90;;;;;;5033988;28;20284;-78
2022/09/25 01:15:50;;;;;;;2.78;1.10;;;20.80;99.90;;;;;;5033771;28;20205;-78
2022/09/25 01:18:33;;;;;;;1.20;1.10;;;20.90;99.90;;;;;;5034153;28;20675;-78
2022/09/25 01:21:22;;;;;;;1.77;1.30;;;21.10;99.90;;;;;;5033506;28;20275;-78
2022/09/25 01:24:30;;;;;;;1.08;0.98;;;21.10;99.90;;;;;;5033774;28;20212;-78
2022/09/25 01:27:38;;;;;;;1.23;1.13;;;21.30;99.90;;;;;;5039817;28;20689;-78
2022/09/25 01:30:13;;;;;;;3.63;1.30;;;21.40;99.90;;;;;;4972535;28;20258;-77
2022/09/25 01:32:57;;;;;;;1.80;1.00;;;21.40;99.90;;;;;;4972301;28;20294;-78
2022/09/25 01:35:44;;;;;;;1.35;1.13;;;21.40;99.90;;;;;;5013128;28;20203;-77
2022/09/25 01:38:25;;;;;;;1.77;1.10;;;21.50;99.90;;;;;;5039307;28;20216;-79
2022/09/25 01:41:03;;;;;;;1.92;1.00;;;21.40;99.90;;;;;;5039145;28;20597;-78
2022/09/25 01:43:39;;;;;;;1.60;0.90;;;21.50;99.90;;;;;;5033416;28;20275;-79
2022/09/25 01:46:17;;;;;;;2.33;1.20;;;21.50;99.90;;;;;;5034310;28;20239;-78
2022/09/25 01:48:52;;;;;;;1.10;1.00;;;21.60;99.90;;;;;;5040637;28;20221;-79
2022/09/25 01:51:25;;;;;;;3.95;1.20;;;21.80;99.90;;;;;;5033439;28;20240;-79
2022/09/25 01:53:59;;;;;;;1.10;1.00;;;21.80;99.90;;;;;;5032913;28;20716;-79
2022/09/25 01:56:35;;;;;;;2.08;1.08;;;21.90;99.90;;;;;;5016377;28;20593;-79
2022/09/25 01:59:10;;;;;;;1.48;1.15;;;22.00;99.40;;;;;;5013061;28;20292;-79
2022/09/25 02:01:44;;;;;;;2.20;1.02;;;21.80;98.40;;;;;;5013648;28;20202;-78
2022/09/25 02:04:17;;;;;;;1.52;1.00;;;21.60;99.90;;;;;;5023485;28;20216;-79
2022/09/25 02:06:52;;;;;;;1.40;1.05;;;21.90;99.90;;;;;;5021970;28;20696;-79
2022/09/25 02:09:27;;;;;;;2.00;1.13;;;22.00;99.90;;;;;;5029592;28;20667;-79
2022/09/25 02:12:01;;;;;;;1.23;0.90;;;22.20;95.20;;;;;;5013137;28;20331;-79
2022/09/25 02:14:37;;;;;;;1.85;0.80;;;22.20;95.30;;;;;;5012910;28;20205;-79
2022/09/25 02:20:30;;;;;;;1.27;1.10;;;22.30;93.40;;;;;;5015765;28;20232;-79
2022/09/25 02:22:55;;;;;;;2.15;0.80;;;22.50;87.50;;;;;;5025181;28;20201;-79
2022/09/25 02:25:37;;;;;;;1.15;0.80;;;22.60;92.10;;;;;;5012183;28;20198;-78
2022/09/25 02:28:08;;;;;;;0.70;0.60;;;22.80;91.30;;;;;;5029470;28;20198;-79
2022/09/25 02:30:39;;;;;;;0.65;0.63;;;22.80;75.90;;;;;;5014834;28;20240;-79
2022/09/25 02:33:12;;;;;;;1.65;0.80;;;22.90;72.70;;;;;;5012350;28;20289;-79
2022/09/25 02:35:43;;;;;;;0.98;0.75;;;23.10;69.70;;;;;;5012933;28;20209;-79
2022/09/25 02:38:14;;;;;;;1.58;0.82;;;22.90;68.50;;;;;;5021461;28;20209;-78
2022/09/25 02:40:53;;;;;;;1.00;0.90;;;23.00;67.90;;;;;;5032200;28;20209;-78
2022/09/25 02:43:34;;;;;;;0.95;0.60;;;23.00;68.40;;;;;;5032017;28;20258;-79
2022/09/25 02:46:14;;;;;;;1.00;0.73;;;23.10;69.40;;;;;;5032140;28;20197;-78
2022/09/25 02:48:55;;;;;;;5.43;3.60;;;23.30;64.70;;;;;;5029477;28;20235;-78
2022/09/25 02:51:31;;;;;;;1.85;0.90;;;23.30;65.00;;;;;;5026192;28;20233;-78
2022/09/25 02:54:10;;;;;;;0.70;0.70;;;23.30;65.40;;;;;;5026245;28;20228;-78
2022/09/25 02:56:45;;;;;;;1.95;0.60;;;23.50;67.90;;;;;;5031583;28;20201;-79
2022/09/25 02:59:20;;;;;;;0.80;0.70;;;23.60;64.30;;;;;;5032062;28;20262;-79
2022/09/25 03:01:52;;;;;;;1.05;0.90;;;23.70;64.80;;;;;;5032223;28;20223;-80
2022/09/25 03:04:28;;;;;;;0.80;0.80;;;23.70;68.60;;;;;;5032303;28;20202;-79
2022/09/25 03:07:00;;;;;;;2.67;0.85;;;23.80;70.10;;;;;;5045533;28;20201;-81
2022/09/25 03:09:35;;;;;;;1.38;0.80;;;23.90;71.10;;;;;;5039652;28;20188;-80
2022/09/25 03:12:07;;;;;;;2.30;0.70;;;24.00;71.90;;;;;;5030803;28;20225;-80
2022/09/25 03:14:38;;;;;;;0.77;0.77;;;24.20;73.00;;;;;;5031141;28;20201;-80
2022/09/25 03:17:10;;;;;;;1.10;0.80;;;24.20;69.10;;;;;;5031666;28;20197;-80
2022/09/25 03:19:43;;;;;;;3.17;1.00;;;24.40;70.20;;;;;;5031179;28;20194;-80
2022/09/25 03:22:13;;;;;;;1.52;0.82;;;24.20;66.90;;;;;;5031491;28;20198;-80
2022/09/25 03:24:44;;;;;;;1.45;0.90;;;24.20;71.80;;;;;;5034360;28;20258;-80
2022/09/25 03:27:15;;;;;;;0.70;0.70;;;24.30;68.10;;;;;;5047426;28;20295;-81
2022/09/25 03:29:47;;;;;;;0.80;0.80;;;24.10;63.80;;;;;;5051220;28;20223;-80
2022/09/25 03:32:18;;;;;;;3.55;0.77;;;23.90;70.50;;;;;;5050066;28;20278;-80
2022/09/25 03:34:51;;;;;;;0.90;0.80;;;24.10;71.80;;;;;;5049353;28;20200;-81
2022/09/25 03:37:21;;;;;;;1.80;0.90;;;24.30;70.60;;;;;;5051191;28;20204;-80
2022/09/25 03:39:52;;;;;;;1.42;1.02;;;24.40;74.90;;;;;;5051333;28;20204;-81
2022/09/25 03:42:27;;;;;;;2.08;1.15;;;24.60;83.30;;;;;;5047715;28;20200;-81
2022/09/25 03:45:00;;;;;;;3.00;1.40;;;24.50;85.20;;;;;;5050919;28;20196;-81
2022/09/25 03:47:31;;;;;;;1.50;1.27;;;24.50;90.10;;;;;;5050635;28;20205;-80
2022/09/25 03:50:04;;;;;;;1.30;0.95;;;24.30;88.70;;;;;;5050636;28;20193;-79
2022/09/25 03:52:35;;;;;;;1.73;1.10;;;24.20;91.70;;;;;;5047098;28;20243;-81
2022/09/25 03:55:06;;;;;;;2.30;1.30;;;24.00;91.90;;;;;;5032186;28;20218;-79
2022/09/25 03:57:37;;;;;;;4.30;1.10;;;23.70;91.10;;;;;;5030394;28;20592;-80
2022/09/25 04:00:08;;;;;;;2.30;1.13;;;23.60;91.80;;;;;;5041482;28;20200;-80
2022/09/25 04:02:41;;;;;;;3.63;1.20;;;23.20;94.50;;;;;;5036795;28;20216;-79
2022/09/25 04:05:14;;;;;;;3.58;1.20;;;23.10;98.10;;;;;;5039229;28;20824;-80
2022/09/25 04:07:44;;;;;;;1.42;1.00;;;23.10;98.90;;;;;;5049970;28;20611;-80
2022/09/25 04:10:15;;;;;;;2.03;1.05;;;23.00;99.90;;;;;;5050450;28;20212;-80
2022/09/25 04:12:46;;;;;;;1.35;1.02;;;22.80;99.90;;;;;;5050494;28;20286;-80
2022/09/25 04:15:17;;;;;;;2.08;1.10;;;22.80;99.90;;;;;;5050535;28;20205;-80
2022/09/25 04:17:48;;;;;;;2.53;1.10;;;22.80;99.90;;;;;;5033195;28;20204;-80
2022/09/25 04:20:21;;;;;;;2.20;1.17;;;22.70;99.90;;;;;;5041765;28;20662;-80
2022/09/25 04:22:52;;;;;;;2.17;1.05;;;22.70;99.90;;;;;;5051071;28;20207;-81
2022/09/25 04:25:24;;;;;;;1.92;1.10;;;22.80;99.90;;;;;;5030410;28;20197;-80
2022/09/25 04:27:57;;;;;;;1.42;1.00;;;22.70;99.90;;;;;;5045959;28;20300;-81
2022/09/25 04:30:28;;;;;;;4.15;1.00;;;22.70;99.90;;;;;;5050065;28;20659;-80
2022/09/25 04:35:48;;;;;;;2.88;1.23;;;22.30;99.90;;;;;;5033277;28;20220;-80
2022/09/25 04:38:18;;;;;;;2.60;0.90;;;22.10;99.90;;;;;;5040234;28;20212;-79
2022/09/25 04:40:49;;;;;;;1.67;1.05;;;22.10;99.90;;;;;;5049636;28;20200;-79
2022/09/25 04:43:21;;;;;;;3.38;1.10;;;22.20;99.90;;;;;;5049880;28;20224;-79
2022/09/25 04:45:52;;;;;;;4.32;1.20;;;22.30;99.90;;;;;;5050332;28;20200;-79
2022/09/25 04:48:23;;;;;;;3.67;1.08;;;22.20;99.90;;;;;;5050345;28;20208;-80
2022/09/25 04:50:57;;;;;;;3.67;1.20;;;22.00;99.90;;;;;;5049384;28;20750;-80
2022/09/25 04:53:28;;;;;;;3.50;1.08;;;21.90;99.90;;;;;;5048453;28;20220;-80
2022/09/25 04:56:04;;;;;;;3.83;1.08;;;21.90;99.90;;;;;;5049571;28;20250;-80
2022/09/25 04:58:37;;;;;;;3.45;0.90;;;21.90;99.90;;;;;;5047054;28;20226;-79
2022/09/25 05:01:09;;;;;;;5.82;1.20;;;21.70;99.90;;;;;;5048319;28;20216;-80
2022/09/25 05:03:40;;;;;;;2.75;0.88;;;21.60;99.90;;;;;;5043762;28;20284;-80
2022/09/25 05:06:13;;;;;;;1.85;0.93;;;21.60;99.90;;;;;;5039944;28;20254;-82
2022/09/25 05:08:44;;;;;;;2.50;1.17;;;21.70;99.90;;;;;;5040321;28;20221;-80
2022/09/25 05:11:15;;;;;;;1.80;0.90;;;21.70;99.90;;;;;;5047839;28;20213;-79
2022/09/25 05:13:46;;;;;;;1.30;1.02;;;21.70;99.90;;;;;;5049592;28;20201;-79
2022/09/25 05:16:17;;;;;;;1.10;0.90;;;21.80;99.90;;;;;;5063063;28;20200;-82
2022/09/25 05:18:48;;;;;;;2.20;0.95;;;21.90;99.90;;;;;;5069758;28;20279;-80
2022/09/25 05:21:20;;;;;;;3.60;1.13;;;22.10;99.90;;;;;;5059470;28;20205;-80
2022/09/25 05:23:52;;;;;;;4.00;1.10;;;22.10;99.90;;;;;;5049009;28;20239;-80
2022/09/25 05:26:23;;;;;;;1.35;0.85;;;22.10;99.90;;;;;;5049670;28;20207;-80
2022/09/25 05:28:57;;;;;;;3.35;0.80;;;22.00;99.90;;;;;;5050024;28;20193;-80
2022/09/25 05:31:28;;;;;;;2.15;0.95;;;22.00;99.90;;;;;;5049494;28;20224;-80
2022/09/25 05:33:58;;;;;;;6.20;1.00;;;22.00;99.90;;;;;;5048377;28;20227;-80
2022/09/25 05:36:32;;;;;;;2.60;1.02;;;22.20;99.90;;;;;;5036088;28;20201;-79
2022/09/25 05:39:02;;;;;;;4.72;1.25;;;22.10;99.90;;;;;;5049241;28;20337;-80
2022/09/25 05:41:35;;;;;;;1.77;0.75;;;22.10;99.90;;;;;;5048205;28;21112;-79
2022/09/25 05:44:08;;;;;;;3.10;1.13;;;22.10;99.90;;;;;;5049424;28;20232;-80
2022/09/25 05:46:39;;;;;;;3.58;0.90;;;22.00;99.90;;;;;;5049404;28;20220;-80
2022/09/25 05:49:09;;;;;;;2.20;0.90;;;22.10;99.90;;;;;;5049307;28;20283;-80
2022/09/25 05:51:42;;;;;;;1.30;0.80;;;22.10;99.90;;;;;;5048064;28;20224;-80
2022/09/25 05:54:13;;;;;;;1.70;0.80;;;22.30;99.90;;;;;;5048927;28;20228;-80
2022/09/25 05:56:43;;;;;;;2.65;1.15;;;22.40;99.90;;;;;;5053005;28;20200;-80
2022/09/25 05:59:14;;;;;;;0.85;0.80;;;22.40;99.90;;;;;;5040676;28;20217;-80
2022/09/25 06:01:45;;;;;;;1.88;1.05;;;22.60;99.90;;;;;;5033066;28;20205;-80
2022/09/25 06:04:15;;;;;;;3.15;0.95;;;22.80;99.90;;;;;;5037941;28;20942;-80
2022/09/25 06:06:48;;;;;;;2.10;0.60;;;22.90;99.90;;;;;;5049682;28;20711;-80
2022/09/25 06:09:19;;;;;;;1.35;0.90;;;23.10;99.90;;;;;;5051430;28;20192;-81
2022/09/25 06:11:52;;;;;;;3.03;0.90;;;23.40;99.90;;;;;;5052323;28;20225;-80
2022/09/25 06:14:23;;;;;;;1.23;0.93;;;23.60;99.90;;;;;;5033183;28;20233;-80
2022/09/25 06:16:57;;;;;;;2.42;0.85;;;23.80;99.90;;;;;;5033246;28;20205;-80
2022/09/25 06:19:28;;;;;;;1.95;0.77;;;24.10;99.90;;;;;;5032253;28;20223;-80
2022/09/25 06:22:00;;;;;;;1.48;0.80;;;24.50;99.90;;;;;;5047785;28;20254;-81
2022/09/25 06:24:31;;;;;;;1.10;0.90;;;24.50;99.90;;;;;;5052342;28;20204;-80
2022/09/25 06:27:03;;;;;;;1.35;0.60;;;24.70;99.90;;;;;;5049906;28;20207;-80
2022/09/25 06:29:34;;;;;;;1.17;0.80;;;24.70;99.90;;;;;;5039814;28;20193;-80
2022/09/25 06:32:05;;;;;;;1.50;0.90;;;24.80;99.90;;;;;;5038305;28;20248;-80
2022/09/25 06:34:36;;;;;;;2.60;0.98;;;24.70;99.90;;;;;;5038072;28;20640;-80
2022/09/25 06:37:09;;;;;;;2.25;0.80;;;24.70;99.90;;;;;;5050644;28;20667;-80
2022/09/25 06:39:39;;;;;;;2.47;1.02;;;24.90;99.90;;;;;;5051849;28;20200;-80
2022/09/25 06:42:10;;;;;;;1.85;0.80;;;25.20;99.90;;;;;;5051967;28;20239;-80
2022/09/25 06:44:42;;;;;;;1.30;0.80;;;25.20;99.90;;;;;;5052056;28;20201;-80
2022/09/25 06:47:13;;;;;;;1.35;0.80;;;25.00;99.90;;;;;;5050548;28;20196;-80
2022/09/25 06:49:45;;;;;;;3.78;0.80;;;25.10;99.90;;;;;;5043596;28;20613;-80
2022/09/25 06:52:18;;;;;;;1.30;0.93;;;24.90;99.90;;;;;;5031613;28;20275;-80
2022/09/25 06:54:50;;;;;;;1.95;1.00;;;24.80;99.90;;;;;;5031599;28;20271;-81
2022/09/25 06:57:23;;;;;;;1.80;1.00;;;24.70;99.90;;;;;;5032245;28;20204;-80
2022/09/25 06:59:53;;;;;;;1.10;0.80;;;24.30;99.90;;;;;;5032209;28;20197;-80
2022/09/25 07:05:12;;;;;;;3.10;0.88;;;23.50;99.90;;;;;;5039238;28;20294;-80
2022/09/25 07:07:45;;;;;;;2.10;0.90;;;23.10;99.90;;;;;;5051649;28;20207;-80
2022/09/25 07:10:16;;;;;;;1.35;0.82;;;22.60;99.90;;;;;;5051477;28;20200;-80
2022/09/25 07:12:46;;;;;;;1.60;0.70;;;22.20;99.90;;;;;;5045218;28;20311;-80
2022/09/25 07:15:17;;;;;;;1.20;0.95;;;21.80;99.90;;;;;;5031558;28;20205;-80
2022/09/25 07:17:48;;;;;;;1.90;0.90;;;21.70;99.90;;;;;;5049808;28;20230;-80
2022/09/25 07:20:20;;;;;;;2.08;0.80;;;21.40;99.90;;;;;;5051286;28;20201;-80
2022/09/25 07:22:53;;;;;;;2.47;0.90;;;21.30;99.90;;;;;;5050669;28;20746;-80
2022/09/25 07:25:23;;;;;;;2.05;0.80;;;21.20;99.90;;;;;;5050412;28;20207;-80
2022/09/25 07:27:55;;;;;;;1.70;0.90;;;21.00;99.90;;;;;;5051619;28;20261;-80
2022/09/25 07:30:25;;;;;;;4.20;0.77;;;20.90;99.90;;;;;;5051860;28;20196;-80
2022/09/25 07:32:59;;;;;;;1.58;0.70;;;20.70;99.90;;;;;;5051322;28;20565;-80
2022/09/25 07:35:30;;;;;;;2.40;0.80;;;20.50;99.90;;;;;;5051090;28;20252;-80
2022/09/25 07:38:04;;;;;;;3.80;0.80;;;20.20;99.90;;;;;;5031243;28;20201;-80
2022/09/25 07:40:37;;;;;;;2.17;0.90;;;20.20;99.90;;;;;;5040163;28;20311;-80
2022/09/25 07:43:08;;;;;;;2.88;0.90;;;20.10;99.90;;;;;;5050916;28;20223;-80
2022/09/25 07:45:38;;;;;;;2.10;1.30;;;20.00;99.90;;;;;;5050948;28;20207;-80
2022/09/25 07:48:10;;;;;;;1.77;1.10;;;19.80;99.90;;;;;;5050750;28;20203;-81
2022/09/25 07:50:41;;;;;;;2.42;0.90;;;19.80;99.90;;;;;;5048210;28;20262;-81
2022/09/25 07:53:13;;;;;;;2.42;1.17;;;19.70;99.90;;;;;;5030174;28;20249;-80
2022/09/25 07:55:44;;;;;;;1.33;0.77;;;19.60;99.90;;;;;;5030768;28;20197;-80
2022/09/25 07:58:18;;;;;;;3.00;0.90;;;19.60;99.90;;;;;;5043214;28;20227;-80
2022/09/25 08:00:49;;;;;;;1.52;0.85;;;19.50;99.90;;;;;;5050937;28;20203;-80
2022/09/25 08:03:20;;;;;;;1.60;0.88;;;19.50;99.90;;;;;;5050573;28;20193;-80
2022/09/25 08:05:59;;;;;;;1.77;0.80;;;19.50;99.90;;;;;;5050729;28;20193;-79
2022/09/25 08:08:32;;;;;;;2.75;1.00;;;19.50;99.90;;;;;;5049406;28;20322;-80
2022/09/25 08:11:05;;;;;;;4.30;0.90;;;19.50;99.90;;;;;;5050947;28;20199;-79
2022/09/25 08:13:37;;;;;;;3.58;0.90;;;19.50;99.90;;;;;;5050223;28;20236;-79
2022/09/25 08:16:12;;;;;;;2.25;1.05;;;19.40;99.90;;;;;;5050308;28;20329;-80
2022/09/25 08:18:44;;;;;;;2.75;1.15;;;19.30;99.90;;;;;;5048055;28;20248;-80
2022/09/25 08:21:16;;;;;;;2.90;1.10;;;19.20;99.90;;;;;;5039339;28;20216;-81
2022/09/25 08:23:52;;;;;;;1.90;1.10;;;19.20;99.90;;;;;;5051914;28;20923;-80
2022/09/25 08:26:23;;;;;;;5.30;1.00;;;19.10;99.90;;;;;;5048028;28;20211;-81
2022/09/25 08:28:54;;;;;;;2.67;1.00;;;19.10;99.90;;;;;;5050189;28;20238;-81
2022/09/25 08:31:25;;;;;;;3.03;1.00;;;19.10;99.90;;;;;;5049234;28;20412;-80
2022/09/25 08:33:56;;;;;;;3.05;1.10;;;19.10;99.90;;;;;;5045401;28;20707;-81
2022/09/25 08:36:27;;;;;;;2.75;1.35;;;19.10;99.90;;;;;;5047443;28;20203;-81
2022/09/25 08:38:59;;;;;;;1.33;1.10;;;19.10;99.90;;;;;;5051717;28;20196;-81
2022/09/25 08:41:33;;;;;;;1.67;1.02;;;19.10;99.90;;;;;;5052090;28;20232;-82
2022/09/25 08:44:08;;;;;;;2.78;1.08;;;19.00;99.90;;;;;;5051954;28;20207;-82
2022/09/25 08:49:35;;;;;;;3.95;1.30;;;19.00;99.90;;;;;;5038605;28;20280;-81
2022/09/25 08:52:07;;;;;;;2.60;1.23;;;19.00;99.90;;;;;;5039785;28;20195;-81
2022/09/25 08:54:41;;;;;;;2.67;1.50;;;19.00;99.90;;;;;;5050164;28;20267;-81
2022/09/25 08:57:19;;;;;;;7.80;1.92;;;19.00;99.90;;;;;;5035662;28;20714;-89
2022/09/25 08:59:56;;;;;;;4.53;1.50;;;18.90;99.90;;;;;;5033046;28;20218;-82
2022/09/25 09:02:33;;;;;;;3.47;1.60;;;18.90;99.90;;;;;;5037242;28;20206;-82
2022/09/25 09:05:09;;;;;;;3.15;1.45;;;18.80;99.90;;;;;;5049575;28;20200;-82
2022/09/25 09:07:43;;;;;;;3.40;1.67;;;18.80;99.90;;;;;;5044223;28;20722;-81
2022/09/25 09:10:26;;;;;;;2.08;1.17;;;18.80;99.90;;;;;;5030427;28;20196;-81
2022/09/25 09:13:02;;;;;;;2.15;1.50;;;18.80;99.90;;;;;;5030534;28;20683;-82
2022/09/25 09:15:41;;;;;;;2.75;1.30;;;18.80;99.90;;;;;;5031206;28;20200;-82
2022/09/25 09:18:26;;;;;;;4.57;1.80;;;18.80;99.90;;;;;;5030380;28;20228;-83
2022/09/25 09:20:57;;;;;;;2.58;1.40;;;18.80;99.90;;;;;;5035528;28;20192;-83
2022/09/25 09:23:34;;;;;;;1.80;1.30;;;18.70;99.90;;;;;;5035720;28;20663;-81
2022/09/25 09:26:16;;;;;;;1.92;1.17;;;18.70;99.90;;;;;;5044513;28;20243;-82
2022/09/25 09:29:05;;;;;;;2.08;1.23;;;18.70;99.90;;;;;;5050196;28;20203;-81
2022/09/25 09:31:45;;;;;;;4.13;2.05;;;18.70;99.90;;;;;;5053477;28;20203;-81
2022/09/25 09:34:39;;;;;;;3.05;2.05;;;18.70;99.90;;;;;;5053553;28;20256;-81
2022/09/25 09:37:18;;;;;;;2.65;1.73;;;18.70;99.90;;;;;;5064587;28;20646;-81
2022/09/25 09:39:59;;;;;;;1.77;1.40;;;18.70;99.90;;;;;;5054886;28;20196;-82
2022/09/25 09:42:39;;;;;;;2.92;1.70;;;18.60;99.90;;;;;;5048346;28;20185;-81
2022/09/25 09:45:20;;;;;;;1.73;1.58;;;18.60;99.90;;;;;;5052925;28;20196;-80
2022/09/25 09:47:58;;;;;;;2.17;1.33;;;18.60;99.90;;;;;;5053511;28;20200;-80
2022/09/25 09:50:37;;;;;;;2.25;1.27;;;18.50;99.90;;;;;;5053681;28;20207;-81
2022/09/25 09:53:13;;;;;;;3.08;1.25;;;18.50;99.90;;;;;;5053373;28;20318;-80
2022/09/25 09:55:47;;;;;;;1.67;1.20;;;18.50;99.90;;;;;;5051850;28;20220;-82
2022/09/25 09:58:25;;;;;;;2.35;1.55;;;18.50;99.90;;;;;;5033431;28;20204;-81
2022/09/25 10:00:56;;;;;;;2.13;1.25;;;18.50;99.90;;;;;;5033943;28;20197;-81
2022/09/25 10:03:30;;;;;;;2.08;1.30;;;18.50;99.90;;;;;;5039464;28;20206;-81
2022/09/25 10:06:03;;;;;;;3.67;1.38;;;18.50;99.90;;;;;;5053132;28;20204;-81
2022/09/25 10:08:38;;;;;;;2.58;1.42;;;18.50;99.90;;;;;;5044811;28;20227;-81
2022/09/25 10:11:17;;;;;;;2.13;1.27;;;18.50;99.90;;;;;;5067091;28;20200;-79
2022/09/25 10:13:50;;;;;;;2.45;1.48;;;18.50;99.90;;;;;;5056459;28;20235;-81
2022/09/25 10:16:26;;;;;;;2.47;1.52;;;18.50;99.90;;;;;;5059392;28;20272;-81
2022/09/25 10:19:02;;;;;;;2.17;1.50;;;18.50;99.90;;;;;;5053485;28;20215;-80
2022/09/25 10:21:42;;;;;;;1.70;1.45;;;18.40;99.90;;;;;;5042659;28;20200;-80
2022/09/25 10:24:33;;;;;;;3.20;1.92;;;18.40;99.90;;;;;;5036573;28;20292;-81
2022/09/25 10:27:36;;;;;;;3.10;2.42;;;18.40;99.90;;;;;;5048283;28;20204;-80
2022/09/25 10:30:20;;;;;;;3.80;2.08;;;18.40;99.90;;;;;;5037084;28;20201;-81
2022/09/25 10:33:06;;;;;;;4.13;2.25;;;18.30;99.90;;;;;;5043205;28;20223;-81
2022/09/25 10:35:49;;;;;;;2.65;1.88;;;18.30;99.90;;;;;;5049587;28;20228;-81
2022/09/25 10:38:50;;;;;;;3.03;1.90;;;18.30;99.90;;;;;;5060957;28;20216;-79
2022/09/25 10:41:22;;;;;;;2.97;1.80;;;18.30;99.90;;;;;;5040664;28;20217;-80
2022/09/25 10:43:59;;;;;;;4.30;2.38;;;18.30;99.90;;;;;;5060267;28;20666;-80
2022/09/25 10:52:10;;;;;;;4.65;2.30;;;18.20;99.90;;;;;;5055694;28;20639;-81
2022/09/25 10:55:15;;;;;;;3.10;2.15;;;18.30;99.90;;;;;;5044280;28;20233;-80
2022/09/25 10:57:49;;;;;;;4.32;2.00;;;18.20;99.90;;;;;;5043903;28;20201;-80
2022/09/25 11:00:25;;;;;;;5.45;2.13;;;18.30;99.90;;;;;;5021565;28;20217;-80
2022/09/25 11:03:04;;;;;;;4.72;2.38;;;18.20;99.90;;;;;;5039731;28;20238;-81
2022/09/25 11:05:37;;;;;;;5.15;2.50;;;18.20;99.90;;;;;;5047202;28;20212;-82
2022/09/25 11:08:18;;;;;;;5.20;2.40;;;18.10;99.90;;;;;;5054345;28;20224;-80
2022/09/25 11:10:56;;;;;;;4.68;2.65;;;18.10;99.90;;;;;;5045991;28;20221;-81
2022/09/25 11:13:29;;;;;;;4.53;3.10;;;18.10;99.90;;;;;;5041625;28;20239;-80
2022/09/25 11:16:02;;;;;;;4.13;2.50;;;18.10;99.90;;;;;;5040292;28;20741;-80
2022/09/25 11:18:40;;;;;;;3.50;2.38;;;18.10;99.90;;;;;;5053270;28;20219;-83
2022/09/25 11:21:23;;;;;;;3.72;2.28;;;18.00;99.90;;;;;;5044581;28;20224;-81
2022/09/25 11:24:10;;;;;;;3.70;2.20;;;18.00;99.90;;;;;;5041676;28;20244;-80
2022/09/25 11:26:49;;;;;;;4.70;2.20;;;17.90;99.90;;;;;;5046925;28;20229;-81
2022/09/25 11:29:31;;;;;;;3.22;2.22;;;17.90;99.90;;;;;;5040340;28;20217;-82
2022/09/25 11:32:11;;;;;;;3.67;2.40;;;17.90;99.90;;;;;;5035935;28;20203;-82
2022/09/25 11:35:12;;;;;;;3.63;2.20;;;17.90;99.90;;;;;;5039526;28;20225;-81
2022/09/25 11:37:59;;;;;;;3.83;2.22;;;17.90;99.90;;;;;;5023925;28;20211;-83
2022/09/25 11:43:42;;;;;;;3.05;2.10;;;17.80;99.90;;;;;;5060548;28;20219;-82
2022/09/25 11:46:24;;;;;;;5.18;2.47;;;17.80;99.90;;;;;;5049164;28;20204;-82
2022/09/25 11:49:09;;;;;;;3.70;2.20;;;17.70;99.90;;;;;;5059060;28;20283;-84
2022/09/25 11:52:15;;;;;;;5.20;2.67;;;17.80;99.90;;;;;;5027595;28;20282;-84
2022/09/25 11:55:06;;;;;;;4.38;2.60;;;17.70;99.90;;;;;;5052710;28;20271;-84
2022/09/25 11:57:44;;;;;;;3.10;2.38;;;17.60;99.90;;;;;;5050736;28;20196;-85
2022/09/25 12:00:29;;;;;;;6.20;2.90;;;17.60;99.90;;;;;;5056553;28;20217;-84
2022/09/25 12:03:19;;;;;;;3.08;2.20;;;17.60;99.90;;;;;;5059636;28;20240;-81
2022/09/25 12:06:17;;;;;;;5.88;2.45;;;17.60;99.90;;;;;;5039275;28;20225;-83
2022/09/25 12:09:09;;;;;;;5.15;2.80;;;17.50;99.90;;;;;;5057078;28;20225;-82
2022/09/25 12:11:49;;;;;;;4.57;2.83;;;17.50;99.90;;;;;;5035555;28;20229;-82
2022/09/25 12:14:31;;;;;;;5.68;3.10;;;17.50;99.90;;;;;;5033746;28;20217;-82
2022/09/25 12:17:17;;;;;;;4.47;2.60;;;17.50;99.90;;;;;;5054197;28;20212;-83
2022/09/25 12:22:53;;;;;;;3.33;2.40;;;17.40;99.90;;;;;;5049260;28;20230;-83
2022/09/25 12:25:52;;;;;;;4.18;2.60;;;17.40;99.90;;;;;;5048195;28;20216;-83
2022/09/25 12:28:45;;;;;;;3.70;2.80;;;17.40;99.90;;;;;;5053121;28;20212;-84
2022/09/25 12:31:46;;;;;;;5.63;2.75;;;17.40;99.90;;;;;;5039533;28;20644;-85
2022/09/25 12:34:26;;;;;;;4.03;2.75;;;17.40;99.90;;;;;;5041629;28;20298;-83
2022/09/25 12:37:09;;;;;;;3.38;2.70;;;17.40;99.90;;;;;;5050953;28;20303;-82
2022/09/25 12:40:01;;;;;;;4.22;2.65;;;17.40;99.90;;;;;;5042786;28;20627;-83
2022/09/25 12:42:43;;;;;;;4.00;2.65;;;17.40;99.90;;;;;;5045473;28;20216;-83
2022/09/25 12:45:25;;;;;;;4.28;2.95;;;17.40;99.90;;;;;;5051824;28;20221;-83
2022/09/25 12:48:14;;;;;;;3.97;2.72;;;17.30;99.90;;;;;;5053643;28;20228;-85
2022/09/25 12:50:56;;;;;;;3.90;2.80;;;17.30;99.90;;;;;;5048001;28;20216;-84
2022/09/25 12:53:32;;;;;;;4.55;2.75;;;17.20;99.90;;;;;;5037505;28;20225;-84
2022/09/25 12:56:11;;;;;;;3.95;2.67;;;17.20;99.90;;;;;;5032110;28;20201;-83
2022/09/25 12:59:06;;;;;;;4.63;2.88;;;17.20;99.90;;;;;;5027500;28;20239;-83
2022/09/25 13:01:45;;;;;;;4.43;2.65;;;17.10;99.90;;;;;;5011190;28;20200;-83
2022/09/25 13:04:48;;;;;;;4.65;2.70;;;17.10;99.90;;;;;;5018003;28;20244;-85
2022/09/25 13:07:26;;;;;;;4.07;2.70;;;17.00;99.90;;;;;;5015585;28;20208;-84
2022/09/25 13:09:57;;;;;;;3.50;2.83;;;17.00;99.90;;;;;;5031880;28;20193;-81
2022/09/25 13:12:35;;;;;;;4.15;3.00;;;17.00;99.90;;;;;;5033521;28;20207;-84
2022/09/25 13:15:10;;;;;;;4.03;2.60;;;17.00;99.90;;;;;;5029476;28;20225;-83
2022/09/25 13:17:43;;;;;;;3.67;2.67;;;17.00;99.90;;;;;;5014727;28;20668;-83
2022/09/25 13:21:03;;;;;;;4.07;2.53;;;16.90;99.90;;;;;;5016617;28;20277;-83
2022/09/25 13:23:37;;;;;;;5.18;2.92;;;16.90;99.90;;;;;;4992820;28;20691;-83
2022/09/25 13:26:15;;;;;;;5.45;3.08;;;16.80;99.90;;;;;;5034263;28;20287;-83
2022/09/25 13:28:54;;;;;;;3.35;2.55;;;16.80;99.90;;;;;;5028009;28;20206;-83
2022/09/25 13:31:26;;;;;;;4.65;2.85;;;16.70;99.90;;;;;;5015216;28;20244;-82
2022/09/25 13:34:06;;;;;;;4.53;2.75;;;16.70;99.90;;;;;;5032934;28;20766;-84
2022/09/25 13:36:43;;;;;;;4.18;2.97;;;16.60;99.90;;;;;;5036217;28;20240;-84
2022/09/25 13:42:17;;;;;;;4.97;3.08;;;16.60;99.90;;;;;;5047265;28;20287;-83
2022/09/25 13:45:09;;;;;;;3.88;2.88;;;16.60;99.90;;;;;;5033491;28;20207;-83
2022/09/25 13:47:58;;;;;;;4.00;2.65;;;16.60;99.90;;;;;;5014772;28;20198;-82
2022/09/25 13:50:33;;;;;;;5.15;2.90;;;16.60;99.90;;;;;;5020709;28;20194;-82
2022/09/25 13:53:19;;;;;;;5.57;2.90;;;16.60;99.90;;;;;;5038463;28;20224;-83
2022/09/25 13:56:29;;;;;;;3.92;2.83;;;16.60;99.90;;;;;;5048621;28;20282;-83
2022/09/25 13:59:06;;;;;;;3.30;2.50;;;16.50;99.90;;;;;;5038296;28;20192;-83
2022/09/25 14:01:39;;;;;;;4.45;2.65;;;16.50;99.90;;;;;;5049078;28;20240;-83
2022/09/25 14:04:20;;;;;;;3.83;2.88;;;16.50;99.90;;;;;;5039705;28;20189;-83